Time;durP1;ratioP1;P1;durP2;ratioP2;P2;SDS_P1;SDS_P2;PMS_P1;PMS_P2;Temp;Humidity;BMP_temperature;BMP_pressure;BME280_temperature;BME280_humidity;BME280_pressure;Samples;Min_cycle;Max_cycle;Signal;HPM_P1;HPM_P2
2022/08/17 00:01:28;;;;;;;5.82;3.45;;;22.00;99.90;;;;;;5009689;28;20198;-76
2022/08/17 00:04:17;;;;;;;5.35;3.70;;;22.00;99.90;;;;;;5009477;28;20050;-76
2022/08/17 00:06:44;;;;;;;6.95;4.25;;;22.00;99.90;;;;;;5009216;28;20478;-76
2022/08/17 00:09:11;;;;;;;6.55;4.07;;;22.00;99.90;;;;;;5007899;28;20057;-76
2022/08/17 00:11:44;;;;;;;5.85;4.25;;;22.00;99.90;;;;;;5008673;28;20138;-75
2022/08/17 00:14:30;;;;;;;8.38;4.82;;;22.10;99.90;;;;;;5008502;28;20052;-76
2022/08/17 00:16:57;;;;;;;6.80;4.57;;;22.10;99.90;;;;;;5006797;28;20052;-76
2022/08/17 00:19:25;;;;;;;7.55;4.10;;;22.10;99.90;;;;;;5007758;28;20060;-76
2022/08/17 00:21:55;;;;;;;7.15;4.57;;;22.10;99.90;;;;;;5007957;28;20479;-76
2022/08/17 00:24:41;;;;;;;9.48;4.57;;;22.20;99.90;;;;;;4997042;28;20062;-76
2022/08/17 00:27:08;;;;;;;9.68;5.22;;;22.20;99.90;;;;;;4991960;28;20054;-76
2022/08/17 00:29:35;;;;;;;7.38;4.60;;;22.20;99.90;;;;;;4991462;28;20046;-76
2022/08/17 00:32:02;;;;;;;7.00;4.22;;;22.20;99.90;;;;;;4995718;28;20141;-76
2022/08/17 00:34:49;;;;;;;8.35;4.10;;;22.30;99.90;;;;;;5005963;28;20056;-76
2022/08/17 00:37:16;;;;;;;6.80;4.13;;;22.40;99.90;;;;;;5006237;28;20576;-75
2022/08/17 00:39:43;;;;;;;7.93;4.97;;;22.30;99.90;;;;;;5005848;28;20137;-76
2022/08/17 00:42:17;;;;;;;11.63;4.60;;;22.40;99.90;;;;;;5005178;28;20050;-76
2022/08/17 00:44:44;;;;;;;9.50;5.90;;;22.40;99.90;;;;;;5005666;28;20050;-75
2022/08/17 00:47:11;;;;;;;10.60;6.35;;;22.40;99.90;;;;;;5004543;28;20129;-75
2022/08/17 00:49:38;;;;;;;7.00;4.65;;;22.40;99.90;;;;;;5004816;28;20177;-76
2022/08/17 00:52:14;;;;;;;4.50;3.88;;;22.40;99.90;;;;;;5004905;28;20046;-76
2022/08/17 00:54:45;;;;;;;4.88;4.38;;;22.40;99.90;;;;;;4998420;28;20081;-76
2022/08/17 00:57:20;;;;;;;7.55;4.10;;;22.40;99.90;;;;;;4999642;28;20127;-75
2022/08/17 00:59:53;;;;;;;9.82;4.57;;;22.50;99.90;;;;;;4998381;28;20085;-76
2022/08/17 01:02:33;;;;;;;5.32;4.10;;;22.50;99.90;;;;;;4998985;28;20085;-76
2022/08/17 01:05:22;;;;;;;7.35;4.05;;;22.40;99.90;;;;;;4984429;28;20058;-76
2022/08/17 01:07:52;;;;;;;6.68;3.83;;;22.40;99.90;;;;;;5003526;28;20054;-75
2022/08/17 01:10:23;;;;;;;9.40;4.78;;;22.40;99.90;;;;;;4999772;28;20138;-76
2022/08/17 01:13:11;;;;;;;6.63;3.72;;;22.40;99.90;;;;;;4992632;28;20050;-76
2022/08/17 01:15:42;;;;;;;5.60;3.85;;;22.40;99.90;;;;;;5000230;28;20082;-76
2022/08/17 01:18:12;;;;;;;6.72;4.30;;;22.40;99.90;;;;;;5000124;28;20413;-76
2022/08/17 01:20:48;;;;;;;4.90;4.00;;;22.40;99.90;;;;;;5000641;28;20133;-75
2022/08/17 01:23:16;;;;;;;8.40;4.40;;;22.40;99.90;;;;;;5001212;28;20093;-76
2022/08/17 01:25:55;;;;;;;5.68;4.05;;;22.50;99.90;;;;;;4990481;28;20080;-75
2022/08/17 01:28:25;;;;;;;7.57;4.10;;;22.40;99.90;;;;;;5002535;28;20514;-75
2022/08/17 01:31:12;;;;;;;4.85;4.38;;;22.40;99.90;;;;;;5004811;28;20050;-76
2022/08/17 01:33:39;;;;;;;5.07;3.38;;;22.40;99.90;;;;;;5005306;28;20088;-75
2022/08/17 01:36:07;;;;;;;9.50;4.38;;;22.40;99.90;;;;;;5003944;28;20524;-76
2022/08/17 01:38:35;;;;;;;7.68;3.83;;;22.40;99.90;;;;;;5004029;28;20084;-76
2022/08/17 01:41:06;;;;;;;5.57;3.65;;;22.40;99.90;;;;;;5003876;28;20077;-75
2022/08/17 01:43:49;;;;;;;5.35;4.05;;;22.30;99.90;;;;;;5003604;28;20077;-76
2022/08/17 01:46:22;;;;;;;9.75;3.83;;;22.30;99.90;;;;;;5003339;28;20208;-75
2022/08/17 01:48:50;;;;;;;10.98;3.72;;;22.20;99.90;;;;;;5002753;28;20497;-76
2022/08/17 01:51:17;;;;;;;5.20;3.70;;;22.20;99.90;;;;;;5002767;28;20596;-76
2022/08/17 01:53:51;;;;;;;4.90;3.72;;;22.20;99.90;;;;;;5005969;28;20085;-75
2022/08/17 01:56:22;;;;;;;5.35;3.30;;;22.10;99.90;;;;;;5002294;28;20050;-76
2022/08/17 01:58:49;;;;;;;9.93;3.63;;;22.10;99.90;;;;;;5005871;28;20073;-76
2022/08/17 02:01:19;;;;;;;5.95;3.60;;;22.10;99.90;;;;;;5007288;28;20505;-76
2022/08/17 02:03:46;;;;;;;8.45;3.67;;;22.10;99.90;;;;;;5007071;28;20061;-76
2022/08/17 02:06:31;;;;;;;4.55;3.50;;;22.10;99.90;;;;;;5001313;28;20046;-76
2022/08/17 02:09:18;;;;;;;5.80;3.53;;;22.10;99.90;;;;;;5001848;28;20054;-76
2022/08/17 02:11:48;;;;;;;5.35;3.30;;;22.10;99.90;;;;;;4994745;28;20467;-75
2022/08/17 02:14:15;;;;;;;8.27;3.67;;;22.20;99.90;;;;;;4994706;28;20043;-76
2022/08/17 02:16:42;;;;;;;8.75;4.32;;;22.20;99.90;;;;;;4998620;28;20086;-75
2022/08/17 02:19:14;;;;;;;7.28;4.28;;;22.20;99.90;;;;;;4999822;28;20108;-76
2022/08/17 02:21:46;;;;;;;7.55;4.28;;;22.20;99.90;;;;;;5007705;28;20092;-75
2022/08/17 02:24:19;;;;;;;7.55;4.50;;;22.30;99.90;;;;;;5007430;28;20093;-75
2022/08/17 02:27:05;;;;;;;6.07;4.22;;;22.30;99.90;;;;;;4989473;28;20061;-76
2022/08/17 02:29:32;;;;;;;7.18;4.28;;;22.30;99.90;;;;;;4991097;28;20046;-75
2022/08/17 02:32:00;;;;;;;6.75;4.70;;;22.20;99.90;;;;;;5009406;28;20050;-76
2022/08/17 02:34:28;;;;;;;7.32;4.28;;;22.30;99.90;;;;;;5008773;28;20100;-76
2022/08/17 02:36:55;;;;;;;10.93;4.88;;;22.40;99.90;;;;;;4998096;28;20531;-76
2022/08/17 02:39:22;;;;;;;7.55;4.57;;;22.30;99.90;;;;;;4996887;28;21041;-76
2022/08/17 02:41:49;;;;;;;6.75;4.63;;;22.30;99.90;;;;;;4993818;28;20484;-76
2022/08/17 02:44:15;;;;;;;7.82;5.10;;;22.30;99.90;;;;;;4997531;28;20054;-76
2022/08/17 02:47:03;;;;;;;5.43;4.60;;;22.30;99.90;;;;;;5007806;28;20507;-76
2022/08/17 02:49:29;;;;;;;8.52;5.10;;;22.30;99.90;;;;;;5009573;28;20081;-75
2022/08/17 02:51:57;;;;;;;7.32;5.20;;;22.20;99.90;;;;;;5010021;28;20136;-76
2022/08/17 02:54:24;;;;;;;9.15;5.75;;;22.30;99.90;;;;;;4995591;28;20464;-76
2022/08/17 02:57:08;;;;;;;8.45;5.70;;;22.30;99.90;;;;;;5010914;28;20132;-75
2022/08/17 02:59:39;;;;;;;9.43;5.60;;;22.30;99.90;;;;;;5010188;28;20053;-76
2022/08/17 03:02:13;;;;;;;7.53;5.80;;;22.20;99.90;;;;;;4996030;28;20599;-76
2022/08/17 03:04:40;;;;;;;9.95;6.20;;;22.20;99.90;;;;;;4996317;28;20134;-76
2022/08/17 03:07:07;;;;;;;8.95;5.35;;;22.10;99.90;;;;;;4996909;28;20077;-76
2022/08/17 03:09:34;;;;;;;8.07;5.93;;;22.10;99.90;;;;;;5000590;28;20125;-76
2022/08/17 03:12:06;;;;;;;8.52;6.10;;;22.10;99.90;;;;;;4995404;28;20078;-76
2022/08/17 03:14:36;;;;;;;7.40;5.70;;;22.10;99.90;;;;;;4994767;28;20119;-76
2022/08/17 03:17:08;;;;;;;5.65;5.07;;;22.00;99.90;;;;;;5008666;28;20057;-76
2022/08/17 03:19:36;;;;;;;7.70;5.90;;;22.00;99.90;;;;;;5011617;28;20061;-76
2022/08/17 03:22:08;;;;;;;10.48;5.88;;;22.00;99.90;;;;;;5011898;28;20050;-76
2022/08/17 03:24:56;;;;;;;9.20;6.70;;;22.00;99.90;;;;;;5012507;28;20053;-76
2022/08/17 03:27:23;;;;;;;9.82;6.45;;;22.00;99.90;;;;;;5012499;28;20065;-76
2022/08/17 03:29:49;;;;;;;6.93;6.18;;;22.00;99.90;;;;;;5012307;28;20077;-76
2022/08/17 03:32:19;;;;;;;10.15;6.80;;;22.00;99.90;;;;;;4999923;28;20074;-76
2022/08/17 03:34:46;;;;;;;9.85;7.22;;;22.00;99.90;;;;;;4993542;28;20445;-76
2022/08/17 03:37:13;;;;;;;8.43;7.03;;;22.00;99.90;;;;;;4993485;28;20048;-76
2022/08/17 03:39:40;;;;;;;11.80;6.60;;;22.00;99.90;;;;;;4993514;28;20141;-76
2022/08/17 03:42:12;;;;;;;14.35;7.18;;;21.90;99.90;;;;;;4993868;28;20050;-76
2022/08/17 03:44:58;;;;;;;7.43;6.15;;;21.90;99.90;;;;;;4994061;28;20481;-76
2022/08/17 03:58:30;;;;;;;6.60;5.90;;;21.30;99.90;;;;;;5005152;28;20078;-76
2022/08/17 04:00:57;;;;;;;8.02;5.05;;;21.10;99.90;;;;;;4977863;28;20058;-75
2022/08/17 04:03:23;;;;;;;8.85;5.95;;;20.90;99.90;;;;;;4994761;28;20085;-76
2022/08/17 04:05:50;;;;;;;9.07;5.30;;;20.80;99.90;;;;;;4995117;28;20050;-75
2022/08/17 04:08:17;;;;;;;8.10;5.10;;;20.80;99.90;;;;;;4995732;28;20416;-75
2022/08/17 04:10:43;;;;;;;5.80;5.20;;;20.70;99.90;;;;;;4995401;28;20072;-76
2022/08/17 04:13:11;;;;;;;6.45;4.70;;;20.70;99.90;;;;;;4995513;28;20467;-76
2022/08/17 04:15:38;;;;;;;8.88;5.63;;;20.70;99.90;;;;;;4996136;28;20125;-75
2022/08/17 04:18:06;;;;;;;5.25;4.68;;;20.60;99.90;;;;;;4996047;28;20129;-76
2022/08/17 04:20:36;;;;;;;5.55;4.03;;;20.70;99.90;;;;;;4979714;28;20112;-76
2022/08/17 04:23:12;;;;;;;5.07;4.55;;;20.80;99.90;;;;;;4995617;28;20088;-76
2022/08/17 04:25:47;;;;;;;5.90;3.97;;;20.90;99.90;;;;;;4980099;28;20078;-76
2022/08/17 04:28:15;;;;;;;5.65;5.05;;;20.90;99.90;;;;;;4978778;28;20053;-75
2022/08/17 04:31:09;;;;;;;10.57;6.15;;;20.90;99.90;;;;;;4999236;28;20133;-76
2022/08/17 04:33:36;;;;;;;9.50;6.85;;;20.80;99.90;;;;;;4988003;28;20046;-73
2022/08/17 04:36:05;;;;;;;9.80;7.25;;;20.80;99.90;;;;;;4992266;28;20415;-76
2022/08/17 04:38:37;;;;;;;6.78;6.18;;;20.70;99.90;;;;;;5005625;28;20081;-74
2022/08/17 04:43:54;;;;;;;6.03;5.25;;;20.90;99.90;;;;;;5027815;28;20407;-80
2022/08/17 04:46:27;;;;;;;8.85;5.85;;;20.90;99.90;;;;;;5028996;28;20045;-80
2022/08/17 04:48:56;;;;;;;6.75;4.85;;;21.00;99.90;;;;;;5028496;28;20542;-80
2022/08/17 04:51:27;;;;;;;7.05;5.28;;;21.00;99.90;;;;;;5028793;28;20474;-79
2022/08/17 04:53:56;;;;;;;6.30;5.07;;;20.90;99.90;;;;;;5029971;28;20050;-80
2022/08/17 04:56:25;;;;;;;7.65;5.30;;;20.90;99.90;;;;;;5028378;28;20046;-80
2022/08/17 04:58:56;;;;;;;6.35;5.22;;;20.90;99.90;;;;;;5029691;28;20050;-80
2022/08/17 05:01:26;;;;;;;9.02;5.60;;;21.00;99.90;;;;;;5031930;28;20705;-83
2022/08/17 05:04:00;;;;;;;6.15;4.75;;;21.00;99.90;;;;;;5031760;28;20056;-80
2022/08/17 05:06:48;;;;;;;7.70;5.13;;;20.90;99.90;;;;;;5028806;28;20057;-80
2022/08/17 05:09:16;;;;;;;7.68;5.07;;;20.90;99.90;;;;;;5034935;28;20045;-80
2022/08/17 05:11:44;;;;;;;7.18;5.00;;;21.00;99.90;;;;;;5031605;28;20106;-80
2022/08/17 05:14:11;;;;;;;8.55;5.45;;;21.00;99.90;;;;;;5033748;28;20069;-79
2022/08/17 05:16:37;;;;;;;5.95;5.15;;;21.00;99.90;;;;;;5033435;28;20141;-83
2022/08/17 05:19:04;;;;;;;8.15;5.00;;;21.10;99.90;;;;;;5034405;28;20985;-81
2022/08/17 05:21:31;;;;;;;7.68;4.53;;;21.10;99.90;;;;;;5031622;28;20128;-80
2022/08/17 05:23:58;;;;;;;6.07;3.75;;;21.10;99.90;;;;;;5034591;28;20139;-80
2022/08/17 05:26:26;;;;;;;5.10;3.72;;;21.10;99.90;;;;;;5032920;28;20140;-80
2022/08/17 05:28:57;;;;;;;3.65;3.25;;;21.20;99.90;;;;;;5031822;28;20091;-81
2022/08/17 05:31:26;;;;;;;3.70;3.40;;;21.10;99.90;;;;;;5032504;28;20041;-80
2022/08/17 05:33:52;;;;;;;5.22;3.53;;;21.10;99.90;;;;;;5035111;28;20080;-81
2022/08/17 05:36:19;;;;;;;4.35;3.25;;;21.10;99.90;;;;;;5034743;28;20050;-80
2022/08/17 05:39:06;;;;;;;3.75;3.35;;;21.20;99.90;;;;;;5035478;28;20049;-80
2022/08/17 05:41:33;;;;;;;4.80;3.65;;;21.20;99.90;;;;;;5033880;28;20059;-81
2022/08/17 05:43:59;;;;;;;4.97;3.17;;;21.20;99.90;;;;;;5033877;28;20138;-81
2022/08/17 05:46:38;;;;;;;3.65;3.20;;;21.30;99.90;;;;;;5026871;28;20057;-79
2022/08/17 05:49:06;;;;;;;4.68;3.10;;;21.30;99.90;;;;;;5034887;28;20107;-80
2022/08/17 05:51:52;;;;;;;4.75;3.70;;;21.30;99.90;;;;;;5028850;28;20496;-80
2022/08/17 05:54:57;;;;;;;6.63;3.67;;;21.40;99.90;;;;;;5026324;28;20418;-80
2022/08/17 05:58:13;;;;;;;5.05;3.63;;;21.40;99.90;;;;;;5027479;28;20128;-79
2022/08/17 06:01:01;;;;;;;4.50;3.35;;;21.40;99.90;;;;;;5023504;28;20184;-79
2022/08/17 06:04:07;;;;;;;4.10;3.67;;;21.50;99.90;;;;;;5025853;28;20053;-79
2022/08/17 06:06:52;;;;;;;6.53;3.40;;;21.50;99.90;;;;;;5029549;28;20140;-78
2022/08/17 06:09:38;;;;;;;3.72;3.20;;;21.50;99.90;;;;;;5030632;28;20069;-80
2022/08/17 06:12:32;;;;;;;5.85;3.38;;;21.50;99.90;;;;;;5034586;28;20550;-79
2022/08/17 06:15:22;;;;;;;4.18;3.55;;;21.60;99.90;;;;;;5030977;28;20049;-80
2022/08/17 06:17:56;;;;;;;3.42;3.13;;;21.60;99.90;;;;;;5023975;28;20045;-82
2022/08/17 06:20:26;;;;;;;3.92;3.50;;;21.70;99.90;;;;;;5031659;28;20073;-80
2022/08/17 06:22:57;;;;;;;;;;;21.70;99.90;;;;;;5033129;28;20111;-80
2022/08/17 06:25:32;;;;;;;;;;;21.80;99.90;;;;;;5029618;28;20041;-80
2022/08/17 06:28:07;;;;;;;4.68;4.05;;;21.80;99.90;;;;;;5032518;28;19931;-80
2022/08/17 06:30:57;;;;;;;6.75;5.40;;;21.80;99.90;;;;;;5022468;28;20046;-80
2022/08/17 06:33:36;;;;;;;5.13;4.47;;;21.80;99.90;;;;;;5021841;28;20474;-79
2022/08/17 06:36:28;;;;;;;6.22;4.53;;;21.70;99.90;;;;;;5031895;28;20045;-79
2022/08/17 06:39:09;;;;;;;5.85;4.68;;;21.70;99.90;;;;;;5033483;28;20089;-80
2022/08/17 06:41:55;;;;;;;5.38;4.90;;;21.60;99.90;;;;;;5021946;28;20080;-82
2022/08/17 06:44:43;;;;;;;7.57;5.53;;;21.60;99.90;;;;;;5039593;28;20058;-79
2022/08/17 06:47:28;;;;;;;7.05;5.93;;;21.60;99.90;;;;;;5036074;28;20055;-80
2022/08/17 06:50:07;;;;;;;5.80;5.03;;;21.80;99.90;;;;;;5030732;28;20161;-79
2022/08/17 06:52:48;;;;;;;5.55;5.00;;;21.80;99.90;;;;;;5033626;28;20052;-79
2022/08/17 06:55:33;;;;;;;8.40;5.97;;;21.80;99.90;;;;;;5020184;28;20482;-81
2022/08/17 06:58:06;;;;;;;7.57;5.57;;;21.90;99.90;;;;;;5019924;28;20045;-79
2022/08/17 07:00:45;;;;;;;7.00;5.30;;;22.00;99.90;;;;;;5030850;28;20061;-80
2022/08/17 07:03:26;;;;;;;7.20;5.57;;;22.00;99.90;;;;;;5034092;28;20057;-79
2022/08/17 07:06:02;;;;;;;9.85;6.03;;;22.10;99.90;;;;;;5019549;28;20049;-79
2022/08/17 07:08:52;;;;;;;12.55;6.43;;;22.10;99.90;;;;;;5020905;28;20057;-79
2022/08/17 07:11:57;;;;;;;7.22;6.22;;;22.10;99.90;;;;;;5034588;28;20056;-80
2022/08/17 07:14:30;;;;;;;7.28;5.57;;;22.10;99.90;;;;;;5017058;28;20436;-80
2022/08/17 07:17:01;;;;;;;9.90;6.13;;;22.10;99.90;;;;;;5035039;28;20076;-80
2022/08/17 07:19:32;;;;;;;7.47;5.50;;;22.10;99.90;;;;;;5020059;28;20133;-78
2022/08/17 07:22:32;;;;;;;8.80;6.15;;;22.10;99.90;;;;;;5034058;28;20097;-80
2022/08/17 07:25:20;;;;;;;7.95;5.85;;;22.20;99.90;;;;;;5019756;28;20056;-79
2022/08/17 07:27:49;;;;;;;7.80;6.22;;;22.10;99.90;;;;;;5018895;28;20677;-78
2022/08/17 07:30:24;;;;;;;7.57;6.45;;;22.10;99.90;;;;;;5018627;28;20054;-79
2022/08/17 07:32:58;;;;;;;7.93;5.63;;;22.20;99.90;;;;;;5019232;28;20073;-80
2022/08/17 07:35:28;;;;;;;11.13;6.10;;;22.20;99.90;;;;;;5021875;28;20077;-80
2022/08/17 07:38:13;;;;;;;9.48;6.75;;;22.30;99.90;;;;;;5018289;28;20048;-80
2022/08/17 07:41:00;;;;;;;10.80;6.32;;;22.30;99.90;;;;;;5017972;28;20149;-80
2022/08/17 07:43:38;;;;;;;9.50;6.65;;;22.40;99.90;;;;;;5017889;28;20046;-80
2022/08/17 07:49:08;;;;;;;13.38;7.15;;;22.40;99.90;;;;;;5021710;28;20078;-80
2022/08/17 07:51:41;;;;;;;8.73;6.90;;;22.40;99.90;;;;;;5019066;28;20046;-80
2022/08/17 07:54:25;;;;;;;11.70;7.68;;;22.40;99.90;;;;;;5018845;28;20526;-80
2022/08/17 07:56:55;;;;;;;8.18;7.32;;;22.60;99.90;;;;;;5016202;28;20092;-79
2022/08/17 07:59:24;;;;;;;11.70;7.93;;;22.50;99.90;;;;;;5015668;28;20053;-79
2022/08/17 08:02:02;;;;;;;10.25;8.07;;;22.50;99.90;;;;;;5033173;28;20050;-80
2022/08/17 08:05:01;;;;;;;10.05;8.48;;;22.50;99.90;;;;;;5031340;28;20060;-79
2022/08/17 08:07:38;;;;;;;13.38;8.25;;;22.60;99.90;;;;;;5019064;28;20056;-79
2022/08/17 08:10:23;;;;;;;10.10;8.93;;;22.70;99.90;;;;;;5020468;28;20085;-79
2022/08/17 08:13:00;;;;;;;11.98;9.40;;;22.80;99.90;;;;;;5036824;28;20073;-79
2022/08/17 08:15:41;;;;;;;12.45;8.70;;;22.90;99.90;;;;;;5020548;28;20284;-78
2022/08/17 08:18:33;;;;;;;8.98;7.78;;;23.00;99.90;;;;;;5020979;28;20053;-79
2022/08/17 08:21:46;;;;;;;10.68;7.65;;;23.00;99.90;;;;;;5022137;28;20058;-79
2022/08/17 08:24:35;;;;;;;8.43;6.88;;;23.10;99.90;;;;;;5022364;28;20139;-80
2022/08/17 08:27:26;;;;;;;12.97;7.57;;;23.10;99.90;;;;;;5032347;28;20107;-80
2022/08/17 08:30:03;;;;;;;10.07;8.07;;;23.20;99.90;;;;;;5032077;28;20088;-79
2022/08/17 08:32:55;;;;;;;9.98;8.20;;;23.30;99.90;;;;;;5030495;28;20511;-79
2022/08/17 08:35:51;;;;;;;10.73;8.13;;;23.50;99.90;;;;;;5030119;28;20054;-79
2022/08/17 08:38:37;;;;;;;11.68;8.25;;;23.70;99.90;;;;;;5027781;28;20496;-78
2022/08/17 08:41:29;;;;;;;9.23;8.15;;;23.80;99.90;;;;;;5022451;28;20128;-79
2022/08/17 08:44:06;;;;;;;9.98;7.25;;;23.80;99.90;;;;;;5028471;28;20053;-79
2022/08/17 08:46:42;;;;;;;9.02;8.10;;;23.90;99.90;;;;;;5022191;28;20128;-80
2022/08/17 08:49:37;;;;;;;10.02;7.97;;;23.90;99.90;;;;;;5029901;28;20049;-78
2022/08/17 08:52:50;;;;;;;8.60;6.38;;;23.80;99.90;;;;;;5030847;28;20060;-79
2022/08/17 08:55:38;;;;;;;13.45;7.05;;;23.70;99.90;;;;;;5023346;28;20080;-79
2022/08/17 08:58:15;;;;;;;8.82;6.95;;;23.60;99.90;;;;;;5037099;28;20041;-84
2022/08/17 09:01:09;;;;;;;9.98;6.63;;;23.30;99.90;;;;;;5048213;28;20030;-81
2022/08/17 09:03:57;;;;;;;10.65;7.20;;;23.10;99.90;;;;;;5046020;28;20043;-80
2022/08/17 09:06:58;;;;;;;9.57;6.82;;;23.10;99.90;;;;;;5046620;28;20072;-82
2022/08/17 09:09:51;;;;;;;12.32;7.78;;;23.00;99.90;;;;;;5048131;28;20041;-81
2022/08/17 09:12:50;;;;;;;10.18;7.85;;;22.90;99.90;;;;;;5044860;28;20038;-80
2022/08/17 09:15:24;;;;;;;8.32;6.88;;;22.90;99.90;;;;;;5049617;28;20042;-80
2022/08/17 09:18:01;;;;;;;8.73;6.82;;;22.90;99.90;;;;;;5038211;28;20049;-77
2022/08/17 09:21:15;;;;;;;10.40;7.25;;;22.80;99.90;;;;;;5030159;28;20057;-80
2022/08/17 09:23:50;;;;;;;8.95;6.93;;;22.80;99.90;;;;;;5026310;28;20046;-79
2022/08/17 09:26:21;;;;;;;7.57;6.60;;;22.80;99.90;;;;;;5030213;28;20140;-79
2022/08/17 09:28:51;;;;;;;8.75;5.72;;;22.70;99.90;;;;;;5025116;28;20100;-78
2022/08/17 09:31:27;;;;;;;9.43;6.07;;;22.60;99.90;;;;;;5030328;28;20132;-80
2022/08/17 09:34:04;;;;;;;9.45;6.47;;;22.60;99.90;;;;;;5023418;28;20054;-78
2022/08/17 09:36:38;;;;;;;13.15;7.57;;;22.50;99.90;;;;;;5022563;28;20141;-76
2022/08/17 09:39:29;;;;;;;9.68;6.38;;;22.50;99.90;;;;;;5025181;28;20076;-79
2022/08/17 09:42:18;;;;;;;8.82;6.25;;;22.50;99.90;;;;;;5028890;28;20126;-78
2022/08/17 09:45:10;;;;;;;9.00;5.88;;;22.60;99.90;;;;;;5022607;28;20076;-78
2022/08/17 09:47:56;;;;;;;10.27;5.57;;;22.70;99.90;;;;;;5022482;28;20511;-78
2022/08/17 09:50:58;;;;;;;8.93;5.07;;;22.90;99.90;;;;;;5023562;28;20132;-78
2022/08/17 09:53:36;;;;;;;9.50;4.65;;;23.10;99.90;;;;;;5024237;28;20042;-76
2022/08/17 09:56:26;;;;;;;9.68;5.28;;;23.10;99.90;;;;;;5026500;28;20136;-78
2022/08/17 09:59:32;;;;;;;4.93;4.28;;;23.20;99.90;;;;;;5029758;28;20651;-79
2022/08/17 10:02:39;;;;;;;6.22;4.40;;;23.40;99.90;;;;;;5026897;28;20049;-78
2022/08/17 10:05:21;;;;;;;5.43;4.22;;;23.50;99.90;;;;;;5023831;28;20587;-79
2022/08/17 10:08:08;;;;;;;8.95;4.57;;;23.60;99.90;;;;;;5023825;28;20586;-79
2022/08/17 10:10:46;;;;;;;6.35;4.07;;;23.60;99.90;;;;;;5023861;28;20057;-78
2022/08/17 10:13:50;;;;;;;9.32;4.68;;;23.60;99.90;;;;;;5028453;28;20049;-79
2022/08/17 10:16:22;;;;;;;4.72;3.80;;;23.70;99.90;;;;;;5029724;28;20042;-79
2022/08/17 10:19:04;;;;;;;6.97;3.78;;;23.80;99.90;;;;;;5034380;28;20535;-79
2022/08/17 10:27:50;;;;;;;5.63;4.15;;;24.40;99.90;;;;;;5029305;28;20045;-78
2022/08/17 10:30:20;;;;;;;4.82;4.05;;;24.60;99.90;;;;;;5030668;28;20057;-80
2022/08/17 10:32:58;;;;;;;6.65;4.60;;;24.70;99.90;;;;;;5029678;28;20076;-79
2022/08/17 10:35:46;;;;;;;6.93;4.78;;;24.90;99.90;;;;;;5036267;28;20133;-80
2022/08/17 10:38:35;;;;;;;5.13;4.60;;;25.00;99.90;;;;;;5024228;28;20050;-80
2022/08/17 10:41:05;;;;;;;6.63;4.57;;;25.10;99.90;;;;;;5033920;28;20088;-79
2022/08/17 10:43:51;;;;;;;6.70;5.18;;;25.10;99.90;;;;;;5034953;28;20141;-79
2022/08/17 10:47:07;;;;;;;6.30;5.65;;;25.10;99.90;;;;;;5034394;28;20057;-79
2022/08/17 10:49:46;;;;;;;9.95;6.30;;;25.10;99.90;;;;;;5031083;28;20095;-80
2022/08/17 10:52:18;;;;;;;9.07;6.22;;;25.10;99.90;;;;;;5021443;28;20100;-80
2022/08/17 10:54:51;;;;;;;7.63;6.07;;;25.00;99.90;;;;;;5034936;28;20389;-79
2022/08/17 10:57:30;;;;;;;7.85;5.95;;;25.00;99.90;;;;;;5034884;28;20064;-81
2022/08/17 11:00:14;;;;;;;9.80;7.30;;;25.00;99.90;;;;;;5020040;28;20059;-81
2022/08/17 11:02:49;;;;;;;16.27;7.80;;;24.90;99.90;;;;;;5020498;28;20132;-80
2022/08/17 11:05:19;;;;;;;11.82;6.85;;;24.90;99.90;;;;;;5034184;28;20498;-80
2022/08/17 11:07:58;;;;;;;14.13;10.07;;;24.80;99.90;;;;;;5021972;28;20128;-79
2022/08/17 11:11:08;;;;;;;11.10;8.35;;;24.80;99.90;;;;;;5033257;28;20049;-80
2022/08/17 11:14:06;;;;;;;10.53;9.30;;;24.80;99.90;;;;;;5035427;28;20049;-79
2022/08/17 11:16:39;;;;;;;10.45;9.30;;;24.80;99.90;;;;;;5032955;28;20328;-81
2022/08/17 11:19:27;;;;;;;12.70;9.85;;;24.80;99.90;;;;;;5026588;28;20069;-82
2022/08/17 11:22:12;;;;;;;12.60;9.05;;;24.80;99.90;;;;;;5033300;28;20088;-80
2022/08/17 11:24:50;;;;;;;12.38;9.35;;;24.90;99.90;;;;;;5025938;28;20085;-80
2022/08/17 11:27:27;;;;;;;12.82;9.23;;;25.00;99.90;;;;;;5024504;28;20527;-80
2022/08/17 11:30:01;;;;;;;14.52;10.15;;;25.10;99.90;;;;;;5029498;28;20110;-80
2022/08/17 11:32:49;;;;;;;12.13;9.32;;;25.00;99.90;;;;;;5037874;28;20053;-80
2022/08/17 11:35:20;;;;;;;12.57;10.73;;;25.00;99.90;;;;;;5031864;28;20045;-79
2022/08/17 11:38:13;;;;;;;10.90;9.80;;;25.00;99.90;;;;;;5023902;28;20046;-78
2022/08/17 11:41:00;;;;;;;10.80;8.18;;;25.00;99.90;;;;;;5032245;28;20046;-80
2022/08/17 11:43:56;;;;;;;14.18;9.45;;;25.10;99.90;;;;;;5028552;28;20685;-79
2022/08/17 11:52:53;;;;;;;8.75;7.53;;;25.30;99.90;;;;;;5034464;28;20492;-80
2022/08/17 11:55:26;;;;;;;9.18;6.47;;;25.30;99.90;;;;;;5027706;28;20080;-79
2022/08/17 11:58:27;;;;;;;7.25;6.38;;;25.30;99.90;;;;;;5033455;28;20049;-80
2022/08/17 12:00:57;;;;;;;6.30;5.25;;;25.30;99.90;;;;;;5029500;28;20072;-80
2022/08/17 12:03:30;;;;;;;5.50;4.55;;;25.30;99.90;;;;;;5038364;28;20056;-80
2022/08/17 12:06:15;;;;;;;6.70;4.93;;;25.40;99.90;;;;;;5030619;28;20054;-79
2022/08/17 12:08:50;;;;;;;7.55;5.30;;;25.50;99.90;;;;;;5039397;28;20088;-79
2022/08/17 12:11:32;;;;;;;6.70;4.72;;;25.50;99.90;;;;;;5028687;28;20049;-81
2022/08/17 12:14:25;;;;;;;7.45;3.67;;;25.60;99.90;;;;;;5035186;28;20041;-80
2022/08/17 12:17:13;;;;;;;2.38;2.17;;;25.50;99.90;;;;;;5033336;28;20061;-80
2022/08/17 12:20:22;;;;;;;4.55;3.22;;;25.50;99.90;;;;;;5035385;28;20113;-79
2022/08/17 12:23:18;;;;;;;3.97;3.35;;;25.50;99.90;;;;;;5028933;28;20042;-80
2022/08/17 12:25:59;;;;;;;5.47;4.32;;;25.50;99.90;;;;;;5031867;28;20078;-80
2022/08/17 12:28:32;;;;;;;5.53;3.63;;;25.50;99.90;;;;;;5029453;28;20073;-79
2022/08/17 12:31:06;;;;;;;3.10;2.47;;;25.50;99.90;;;;;;5035189;28;20132;-79
2022/08/17 12:33:35;;;;;;;6.47;3.42;;;25.60;99.90;;;;;;5033260;28;20411;-80
2022/08/17 12:36:06;;;;;;;5.55;3.47;;;25.60;99.90;;;;;;5028255;28;20049;-81
2022/08/17 12:38:36;;;;;;;10.68;4.60;;;25.70;99.90;;;;;;5037137;28;20042;-79
2022/08/17 12:43:57;;;;;;;5.68;4.15;;;25.80;99.90;;;;;;5030529;28;20084;-80
2022/08/17 12:46:24;;;;;;;4.40;4.00;;;25.80;99.90;;;;;;5032211;28;20076;-80
2022/08/17 12:48:51;;;;;;;6.72;4.65;;;25.90;99.90;;;;;;5028498;28;20092;-80
2022/08/17 12:51:25;;;;;;;6.63;4.30;;;26.00;99.90;;;;;;5031420;28;20053;-79
2022/08/17 12:53:54;;;;;;;4.40;3.63;;;26.20;99.90;;;;;;5032154;28;20125;-80
2022/08/17 12:56:20;;;;;;;6.82;4.03;;;26.30;99.90;;;;;;5031624;28;20049;-79
2022/08/17 12:58:54;;;;;;;4.05;3.65;;;26.40;99.90;;;;;;5033930;28;20069;-82
2022/08/17 13:01:23;;;;;;;4.70;3.78;;;26.50;99.90;;;;;;5034158;28;20475;-79
2022/08/17 13:03:53;;;;;;;4.55;3.60;;;26.70;99.90;;;;;;5033300;28;20073;-79
2022/08/17 13:06:30;;;;;;;5.70;3.47;;;26.80;99.90;;;;;;5033025;28;20088;-79
2022/08/17 13:09:09;;;;;;;6.75;3.70;;;26.90;99.90;;;;;;5029112;28;20496;-80
2022/08/17 13:11:46;;;;;;;4.53;3.40;;;26.90;99.90;;;;;;5030558;28;20050;-80
2022/08/17 13:14:17;;;;;;;3.42;3.13;;;27.00;99.90;;;;;;5035093;28;20106;-79
2022/08/17 13:16:54;;;;;;;5.70;3.38;;;26.90;99.90;;;;;;5028149;28;20062;-79
2022/08/17 13:19:22;;;;;;;5.28;2.83;;;27.00;99.90;;;;;;5034070;28;20038;-80
2022/08/17 13:22:11;;;;;;;5.45;3.58;;;27.00;99.90;;;;;;5032081;28;20054;-80
2022/08/17 13:25:02;;;;;;;4.97;2.70;;;27.00;99.90;;;;;;5032679;28;20107;-81
2022/08/17 13:27:30;;;;;;;3.15;2.80;;;27.00;99.90;;;;;;5038053;28;20053;-80
2022/08/17 13:30:10;;;;;;;3.47;2.90;;;27.00;99.90;;;;;;5042266;28;20069;-79
2022/08/17 13:32:41;;;;;;;4.63;3.25;;;27.00;99.90;;;;;;5031171;28;20049;-80
2022/08/17 13:35:44;;;;;;;3.22;2.92;;;26.90;99.90;;;;;;5039884;28;20124;-82
2022/08/17 13:38:44;;;;;;;4.47;3.45;;;26.80;99.90;;;;;;5037585;28;20184;-79
2022/08/17 13:41:33;;;;;;;3.35;2.90;;;26.70;99.90;;;;;;5039895;28;20041;-79
2022/08/17 13:44:00;;;;;;;4.88;3.10;;;26.70;99.90;;;;;;5037774;28;20056;-79
2022/08/17 13:46:32;;;;;;;4.78;3.20;;;26.60;99.90;;;;;;5036942;28;20491;-81
2022/08/17 13:49:03;;;;;;;4.68;3.20;;;26.60;99.90;;;;;;5037231;28;20056;-79
2022/08/17 13:51:44;;;;;;;3.92;3.00;;;26.40;99.90;;;;;;5043242;28;20046;-79
2022/08/17 13:54:33;;;;;;;5.68;2.70;;;26.40;99.90;;;;;;5033420;28;20056;-80
2022/08/17 13:57:01;;;;;;;3.20;2.47;;;26.30;99.90;;;;;;5032138;28;20057;-80
2022/08/17 13:59:33;;;;;;;6.55;3.13;;;26.20;99.90;;;;;;5032503;28;20056;-79
2022/08/17 14:02:20;;;;;;;6.07;2.95;;;26.20;99.90;;;;;;5035513;28;20549;-80
2022/08/17 14:04:47;;;;;;;5.07;2.58;;;26.00;99.90;;;;;;5038332;28;20542;-81
2022/08/17 14:07:14;;;;;;;3.35;2.92;;;26.00;99.90;;;;;;5034639;28;20077;-80
2022/08/17 14:10:10;;;;;;;5.30;3.15;;;25.90;99.90;;;;;;5032345;28;20057;-80
2022/08/17 14:12:39;;;;;;;3.00;2.58;;;25.80;99.90;;;;;;5034435;28;20542;-81